Time;durP1;ratioP1;P1;durP2;ratioP2;P2;SDS_P1;SDS_P2;PMS_P1;PMS_P2;Temp;Humidity;BMP_temperature;BMP_pressure;BME280_temperature;BME280_humidity;BME280_pressure;Samples;Min_cycle;Max_cycle;Signal;HPM_P1;HPM_P2
2021/09/20 00:01:43;;;;;;;6.20;3.03;;;16.90;74.70;;;;;;5088295;28;20097;-69
2021/09/20 00:04:09;;;;;;;8.30;3.20;;;16.90;74.80;;;;;;5091724;28;20032;-69
2021/09/20 00:06:34;;;;;;;6.40;3.70;;;16.90;75.00;;;;;;5094199;28;20479;-69
2021/09/20 00:09:00;;;;;;;7.78;3.63;;;16.90;75.10;;;;;;5089349;28;20054;-70
2021/09/20 00:11:26;;;;;;;6.95;3.20;;;16.90;75.30;;;;;;5083597;28;20027;-69
2021/09/20 00:13:51;;;;;;;9.25;3.97;;;16.90;75.40;;;;;;5085586;28;20482;-70
2021/09/20 00:16:17;;;;;;;5.95;3.72;;;16.80;75.50;;;;;;5092703;28;20023;-70
2021/09/20 00:18:42;;;;;;;7.90;3.75;;;16.80;75.70;;;;;;5081991;28;20032;-69
2021/09/20 00:21:08;;;;;;;6.90;3.55;;;16.80;75.80;;;;;;5074613;28;20077;-69
2021/09/20 00:23:34;;;;;;;8.13;3.75;;;16.80;76.00;;;;;;5082069;28;20039;-70
2021/09/20 00:26:00;;;;;;;8.82;3.78;;;16.80;76.10;;;;;;5081199;28;20052;-70
2021/09/20 00:28:26;;;;;;;7.22;3.47;;;16.70;76.20;;;;;;5088177;28;20474;-70
2021/09/20 00:30:52;;;;;;;6.47;3.70;;;16.80;76.40;;;;;;5091598;28;20020;-70
2021/09/20 00:33:18;;;;;;;6.03;3.38;;;16.80;76.50;;;;;;5091397;28;20024;-69
2021/09/20 00:35:43;;;;;;;10.95;3.80;;;16.70;76.60;;;;;;5092318;28;20123;-69
2021/09/20 00:38:09;;;;;;;7.18;3.65;;;16.70;76.70;;;;;;5078978;28;20509;-70
2021/09/20 00:40:35;;;;;;;9.15;3.83;;;16.70;76.70;;;;;;5081081;28;20901;-69
2021/09/20 00:43:01;;;;;;;8.57;3.50;;;16.70;76.70;;;;;;5088052;28;20031;-70
2021/09/20 00:45:27;;;;;;;8.88;3.65;;;16.70;76.80;;;;;;5083928;28;20062;-69
2021/09/20 00:47:53;;;;;;;10.73;3.95;;;16.70;76.90;;;;;;5085432;28;20043;-70
2021/09/20 00:50:19;;;;;;;6.00;3.50;;;16.70;76.90;;;;;;5087912;28;20030;-70
2021/09/20 00:52:44;;;;;;;8.10;4.00;;;16.70;77.00;;;;;;5082395;28;20117;-69
2021/09/20 00:55:11;;;;;;;10.35;4.00;;;16.60;77.00;;;;;;5076282;28;20060;-69
2021/09/20 00:57:40;;;;;;;7.40;3.80;;;16.60;77.20;;;;;;5085316;28;20024;-69
2021/09/20 01:00:08;;;;;;;7.28;3.63;;;16.60;77.30;;;;;;5083792;28;20101;-69
2021/09/20 01:02:33;;;;;;;8.02;4.18;;;16.60;77.40;;;;;;5086976;28;20025;-70
2021/09/20 01:04:59;;;;;;;8.02;3.90;;;16.60;77.50;;;;;;5089336;28;20081;-70
2021/09/20 01:07:25;;;;;;;8.57;4.22;;;16.50;77.60;;;;;;5072142;28;20085;-70
2021/09/20 01:09:50;;;;;;;5.88;3.55;;;16.50;77.80;;;;;;5077226;28;20098;-73
2021/09/20 01:12:16;;;;;;;6.72;3.70;;;16.60;78.00;;;;;;5073073;28;20368;-69
2021/09/20 01:14:42;;;;;;;7.97;3.90;;;16.50;78.10;;;;;;5073215;28;20056;-69
2021/09/20 01:17:09;;;;;;;7.28;3.78;;;16.50;78.20;;;;;;5073614;28;20029;-69
2021/09/20 01:19:35;;;;;;;5.82;3.65;;;16.50;78.30;;;;;;5072755;28;20028;-70
2021/09/20 01:22:04;;;;;;;7.15;3.83;;;16.50;78.50;;;;;;5076664;28;20545;-70
2021/09/20 01:24:29;;;;;;;8.45;3.97;;;16.50;78.70;;;;;;5082441;28;20042;-70
2021/09/20 01:27:00;;;;;;;8.43;4.07;;;16.50;78.70;;;;;;5080865;28;20029;-70
2021/09/20 01:29:25;;;;;;;5.80;3.38;;;16.50;78.90;;;;;;5081538;28;20032;-70
2021/09/20 01:31:52;;;;;;;6.25;3.78;;;16.50;79.60;;;;;;5083638;28;20489;-70
2021/09/20 01:34:17;;;;;;;11.32;3.92;;;16.50;79.10;;;;;;5084068;28;20467;-70
2021/09/20 01:36:43;;;;;;;7.32;4.00;;;16.50;79.20;;;;;;5074454;28;20051;-70
2021/09/20 01:39:17;;;;;;;6.10;3.83;;;16.50;79.30;;;;;;5074089;28;20060;-70
2021/09/20 01:41:44;;;;;;;10.05;4.55;;;16.50;79.50;;;;;;5076785;28;20032;-70
2021/09/20 01:44:09;;;;;;;7.57;3.70;;;16.50;79.50;;;;;;5078426;28;20029;-69
2021/09/20 01:46:35;;;;;;;8.80;3.80;;;16.50;79.60;;;;;;5078916;28;20073;-70
2021/09/20 01:49:01;;;;;;;8.38;4.10;;;16.50;79.70;;;;;;5078195;28;20506;-70
2021/09/20 01:51:27;;;;;;;10.77;3.65;;;16.50;79.80;;;;;;5074430;28;20101;-70
2021/09/20 01:53:53;;;;;;;6.85;3.88;;;16.50;79.90;;;;;;5083416;28;20047;-70
2021/09/20 01:56:19;;;;;;;9.60;4.07;;;16.50;79.90;;;;;;5088994;28;20024;-70
2021/09/20 01:58:45;;;;;;;7.55;4.18;;;16.50;80.60;;;;;;5091276;28;20032;-70
2021/09/20 02:01:10;;;;;;;10.65;4.07;;;16.50;80.00;;;;;;5090149;28;20020;-70
2021/09/20 02:03:36;;;;;;;15.13;4.25;;;16.50;80.10;;;;;;5084638;28;20028;-70
2021/09/20 02:06:02;;;;;;;7.53;3.70;;;16.50;80.20;;;;;;5082095;28;20111;-70
2021/09/20 02:08:27;;;;;;;8.73;4.10;;;16.60;80.30;;;;;;5073742;28;20123;-70
2021/09/20 02:10:53;;;;;;;7.15;4.05;;;16.50;80.30;;;;;;5083577;28;20104;-70
2021/09/20 02:13:19;;;;;;;9.20;3.58;;;16.60;80.50;;;;;;5073326;28;20031;-70
2021/09/20 02:15:44;;;;;;;10.90;4.63;;;16.60;80.60;;;;;;5080844;28;20032;-70
2021/09/20 02:18:10;;;;;;;8.98;4.25;;;16.60;80.60;;;;;;5091163;28;20032;-70
2021/09/20 02:20:35;;;;;;;7.25;3.88;;;16.60;80.60;;;;;;5073808;28;20541;-70
2021/09/20 02:23:01;;;;;;;8.45;3.63;;;16.60;80.70;;;;;;5073207;28;20036;-70
2021/09/20 02:25:27;;;;;;;8.25;4.45;;;16.60;80.80;;;;;;5076717;28;20024;-70
2021/09/20 02:27:53;;;;;;;9.68;3.55;;;16.60;80.80;;;;;;5080176;28;20036;-70
2021/09/20 02:30:18;;;;;;;8.40;4.30;;;16.60;80.90;;;;;;5074761;28;20086;-70
2021/09/20 02:32:45;;;;;;;7.07;3.90;;;16.60;81.00;;;;;;5091061;28;20032;-70
2021/09/20 02:35:11;;;;;;;9.15;3.95;;;16.60;81.10;;;;;;5090676;28;20123;-70
2021/09/20 02:37:36;;;;;;;10.85;4.70;;;16.60;81.20;;;;;;5083081;28;20376;-70
2021/09/20 02:40:04;;;;;;;8.38;4.05;;;16.70;81.30;;;;;;5092616;28;20034;-71
2021/09/20 02:42:30;;;;;;;9.93;4.15;;;16.70;81.40;;;;;;5088277;28;20467;-70
2021/09/20 02:44:55;;;;;;;9.82;4.18;;;16.60;81.30;;;;;;5095935;28;20028;-70
2021/09/20 02:47:21;;;;;;;8.10;3.92;;;16.70;81.40;;;;;;5087445;28;20104;-70
2021/09/20 02:49:47;;;;;;;7.38;4.20;;;16.70;81.50;;;;;;5092302;28;20385;-70
2021/09/20 02:52:12;;;;;;;6.45;3.72;;;16.70;81.50;;;;;;5085379;28;20060;-70
2021/09/20 02:54:38;;;;;;;8.93;4.10;;;16.70;81.40;;;;;;5084181;28;20024;-70
2021/09/20 02:57:04;;;;;;;7.30;4.05;;;16.70;81.50;;;;;;5078549;28;20032;-70
2021/09/20 02:59:29;;;;;;;7.72;4.15;;;16.70;81.40;;;;;;5091750;28;20356;-70
2021/09/20 03:01:55;;;;;;;6.72;3.90;;;16.70;81.40;;;;;;5087350;28;20529;-70
2021/09/20 03:04:20;;;;;;;8.45;3.92;;;16.70;81.30;;;;;;5089560;28;20021;-70
2021/09/20 03:06:46;;;;;;;8.77;4.07;;;16.70;81.20;;;;;;5075842;28;20089;-70
2021/09/20 03:09:12;;;;;;;7.97;4.20;;;16.70;81.20;;;;;;5090894;28;20063;-70
2021/09/20 03:11:37;;;;;;;5.75;3.83;;;16.70;81.10;;;;;;5087626;28;20016;-70
2021/09/20 03:14:03;;;;;;;9.18;4.30;;;16.70;81.00;;;;;;5089972;28;20025;-70
2021/09/20 03:16:29;;;;;;;9.75;3.70;;;16.60;80.90;;;;;;5093892;28;20026;-70
2021/09/20 03:18:54;;;;;;;8.27;3.83;;;16.70;80.90;;;;;;5091429;28;20039;-70
2021/09/20 03:21:23;;;;;;;8.88;3.75;;;16.60;80.80;;;;;;5079163;28;20089;-70
2021/09/20 03:23:52;;;;;;;8.07;3.55;;;16.70;80.90;;;;;;5077191;28;20028;-70
2021/09/20 03:26:18;;;;;;;11.75;4.25;;;16.70;80.90;;;;;;5078739;28;20032;-70
2021/09/20 03:28:44;;;;;;;6.95;3.55;;;16.70;80.80;;;;;;5090934;28;20581;-70
2021/09/20 03:31:10;;;;;;;7.80;3.88;;;16.70;80.80;;;;;;5085118;28;20088;-70
2021/09/20 03:33:35;;;;;;;6.75;3.95;;;16.70;80.70;;;;;;5088376;28;20035;-70
2021/09/20 03:36:01;;;;;;;11.13;4.30;;;16.70;80.70;;;;;;5086110;28;20029;-70
2021/09/20 03:38:27;;;;;;;7.07;3.60;;;16.70;80.70;;;;;;5085918;28;20032;-70
2021/09/20 03:40:52;;;;;;;11.23;4.10;;;16.70;80.80;;;;;;5081027;28;20020;-70
2021/09/20 03:43:18;;;;;;;8.77;3.92;;;16.70;80.70;;;;;;5090183;28;20059;-71
2021/09/20 03:45:44;;;;;;;5.03;3.28;;;16.70;80.70;;;;;;5088380;28;20027;-70
2021/09/20 03:48:09;;;;;;;6.57;3.53;;;16.70;80.60;;;;;;5090522;28;20040;-70
2021/09/20 03:50:35;;;;;;;5.45;3.25;;;16.70;80.60;;;;;;5081125;28;20035;-70
2021/09/20 03:53:00;;;;;;;7.03;3.45;;;16.70;81.20;;;;;;5093539;28;20024;-71
2021/09/20 03:55:26;;;;;;;7.28;3.28;;;16.70;80.50;;;;;;5092228;28;20056;-70
2021/09/20 03:57:52;;;;;;;4.80;3.05;;;16.70;80.40;;;;;;5080664;28;20059;-70
2021/09/20 04:00:17;;;;;;;8.50;3.67;;;16.80;80.50;;;;;;5088474;28;20036;-70
2021/09/20 04:02:43;;;;;;;7.95;3.08;;;16.70;80.40;;;;;;5084313;28;20050;-70
2021/09/20 04:05:09;;;;;;;6.95;3.50;;;16.70;80.30;;;;;;5088980;28;20020;-70
2021/09/20 04:07:42;;;;;;;9.23;3.30;;;16.70;80.30;;;;;;5087645;28;20518;-70
2021/09/20 04:10:10;;;;;;;6.22;3.55;;;16.70;80.30;;;;;;5087804;28;20034;-70
2021/09/20 04:12:35;;;;;;;6.25;3.55;;;16.70;80.20;;;;;;5080462;28;20468;-70
2021/09/20 04:15:01;;;;;;;9.88;4.05;;;16.80;80.20;;;;;;5082292;28;20069;-70
2021/09/20 04:17:27;;;;;;;8.07;3.63;;;16.70;80.10;;;;;;5077062;28;20043;-70
2021/09/20 04:19:53;;;;;;;7.10;3.70;;;16.70;80.10;;;;;;5087244;28;20028;-70
2021/09/20 04:22:18;;;;;;;7.03;3.42;;;16.70;80.00;;;;;;5079658;28;20024;-70
2021/09/20 04:24:44;;;;;;;4.22;3.22;;;16.70;80.10;;;;;;5085202;28;20100;-70
2021/09/20 04:27:09;;;;;;;7.00;3.40;;;16.70;80.10;;;;;;5079395;28;20221;-70
2021/09/20 04:29:35;;;;;;;9.15;2.97;;;16.70;80.10;;;;;;5090526;28;20085;-70
2021/09/20 04:32:01;;;;;;;7.03;3.20;;;16.70;80.10;;;;;;5091872;28;20040;-70
2021/09/20 04:34:26;;;;;;;7.90;3.88;;;16.70;80.10;;;;;;5090031;28;20028;-70
2021/09/20 04:36:53;;;;;;;7.78;3.22;;;16.70;80.00;;;;;;5072525;28;20087;-71
2021/09/20 04:39:19;;;;;;;9.18;3.25;;;16.70;80.00;;;;;;5091597;28;20467;-68
2021/09/20 04:41:44;;;;;;;6.05;3.17;;;16.70;80.10;;;;;;5079687;28;20090;-68
2021/09/20 04:44:10;;;;;;;5.70;3.30;;;16.70;80.10;;;;;;5087662;28;20069;-69
2021/09/20 04:46:36;;;;;;;9.10;3.38;;;16.70;80.10;;;;;;5076762;28;20460;-70
2021/09/20 04:49:03;;;;;;;5.88;3.15;;;16.70;80.10;;;;;;5081920;28;20036;-69
2021/09/20 04:51:29;;;;;;;5.63;3.22;;;16.70;80.10;;;;;;5087831;28;20016;-69
2021/09/20 04:53:54;;;;;;;6.90;3.28;;;16.70;80.20;;;;;;5076368;28;20024;-69
2021/09/20 04:56:20;;;;;;;9.30;3.83;;;16.70;80.20;;;;;;5071848;28;20484;-69
2021/09/20 04:58:46;;;;;;;9.15;3.40;;;16.70;80.10;;;;;;5073329;28;20506;-69
2021/09/20 05:01:11;;;;;;;11.05;3.53;;;16.70;80.10;;;;;;5073232;28;20025;-69
2021/09/20 05:03:37;;;;;;;7.90;3.00;;;16.60;80.00;;;;;;5075717;28;20037;-72
2021/09/20 05:06:03;;;;;;;10.20;3.60;;;16.70;80.10;;;;;;5092445;28;20020;-71
2021/09/20 05:08:28;;;;;;;8.73;3.28;;;16.60;80.10;;;;;;5080856;28;20071;-69
2021/09/20 05:10:54;;;;;;;5.10;3.35;;;16.60;80.10;;;;;;5081109;28;20028;-72
2021/09/20 05:13:20;;;;;;;7.70;3.47;;;16.70;80.20;;;;;;5082631;28;20029;-70
2021/09/20 05:15:45;;;;;;;6.43;3.35;;;16.60;80.10;;;;;;5072383;28;20143;-72
2021/09/20 05:18:11;;;;;;;8.13;3.53;;;16.70;80.30;;;;;;5085571;28;20067;-70
2021/09/20 05:20:37;;;;;;;7.28;3.13;;;16.60;80.20;;;;;;5073972;28;20028;-69
2021/09/20 05:23:03;;;;;;;7.63;3.58;;;16.70;80.30;;;;;;5083292;28;20032;-69
2021/09/20 05:25:29;;;;;;;6.07;3.00;;;16.60;80.20;;;;;;5081314;28;20023;-73
2021/09/20 05:27:55;;;;;;;16.83;3.88;;;16.60;80.20;;;;;;5086349;28;20396;-72
2021/09/20 05:30:20;;;;;;;7.00;3.25;;;16.60;80.20;;;;;;5089445;28;20028;-70
2021/09/20 05:32:46;;;;;;;10.23;3.33;;;16.60;80.20;;;;;;5084836;28;20036;-72
2021/09/20 05:35:13;;;;;;;9.55;3.47;;;16.60;80.20;;;;;;5074732;28;20032;-72
2021/09/20 05:37:39;;;;;;;5.18;3.03;;;16.60;80.20;;;;;;5073782;28;20064;-72
2021/09/20 05:40:06;;;;;;;9.50;3.00;;;16.60;80.20;;;;;;5074199;28;20040;-73
2021/09/20 05:42:31;;;;;;;9.73;3.42;;;16.60;80.20;;;;;;5076703;28;20032;-73
2021/09/20 05:44:57;;;;;;;8.50;3.25;;;16.60;80.10;;;;;;5089114;28;20498;-70
2021/09/20 05:47:22;;;;;;;8.55;3.22;;;16.60;80.10;;;;;;5083790;28;20101;-70
2021/09/20 05:49:48;;;;;;;6.63;2.85;;;16.60;80.00;;;;;;5085118;28;20048;-70
2021/09/20 05:52:14;;;;;;;6.95;2.80;;;16.60;80.00;;;;;;5080912;28;20039;-70
2021/09/20 05:54:40;;;;;;;5.85;2.88;;;16.70;80.00;;;;;;5076112;28;20036;-70
2021/09/20 05:57:06;;;;;;;7.03;2.80;;;16.70;80.00;;;;;;5080940;28;20043;-70
2021/09/20 05:59:31;;;;;;;6.22;2.97;;;16.60;80.00;;;;;;5085101;28;20380;-70
2021/09/20 06:01:57;;;;;;;6.03;3.35;;;16.70;80.10;;;;;;5077972;28;20029;-70
2021/09/20 06:04:24;;;;;;;7.22;3.30;;;16.70;80.10;;;;;;5088294;28;20032;-70
2021/09/20 06:06:50;;;;;;;5.55;2.95;;;16.70;80.10;;;;;;5079600;28;20107;-70
2021/09/20 06:09:16;;;;;;;10.32;2.83;;;16.60;80.10;;;;;;5087953;28;20548;-70
2021/09/20 06:11:42;;;;;;;7.50;2.95;;;16.60;80.10;;;;;;5087689;28;20032;-70
2021/09/20 06:14:08;;;;;;;5.88;2.90;;;16.70;80.30;;;;;;5083651;28;20039;-71
2021/09/20 06:16:34;;;;;;;5.43;2.75;;;16.60;80.20;;;;;;5076931;28;20028;-69
2021/09/20 06:18:59;;;;;;;7.78;3.38;;;16.70;80.30;;;;;;5088028;28;20043;-69
2021/09/20 06:21:25;;;;;;;6.85;3.42;;;16.60;80.30;;;;;;5085145;28;20060;-69
2021/09/20 06:23:51;;;;;;;8.35;2.90;;;16.70;80.40;;;;;;5092871;28;20040;-69
2021/09/20 06:26:17;;;;;;;8.10;3.15;;;16.70;80.40;;;;;;5093916;28;20020;-70
2021/09/20 06:28:42;;;;;;;5.20;3.00;;;16.70;80.40;;;;;;5085455;28;20040;-71
2021/09/20 06:31:08;;;;;;;6.90;2.80;;;16.70;80.50;;;;;;5076252;28;20055;-69
2021/09/20 06:33:35;;;;;;;8.35;3.80;;;16.70;80.30;;;;;;5079533;28;20131;-69
2021/09/20 06:36:01;;;;;;;6.32;3.03;;;16.70;80.30;;;;;;5084800;28;20447;-67
2021/09/20 06:38:27;;;;;;;11.70;3.08;;;16.70;80.30;;;;;;5087859;28;20050;-69
2021/09/20 06:40:53;;;;;;;7.50;2.90;;;16.70;80.30;;;;;;5093930;28;20099;-69
2021/09/20 06:43:19;;;;;;;8.07;3.20;;;16.70;80.40;;;;;;5077171;28;20037;-69
2021/09/20 06:45:45;;;;;;;5.07;2.83;;;16.70;80.60;;;;;;5085336;28;20027;-69
2021/09/20 06:48:11;;;;;;;11.80;4.07;;;16.70;80.70;;;;;;5087998;28;20471;-69
2021/09/20 06:50:36;;;;;;;5.72;2.80;;;16.70;80.70;;;;;;5086332;28;20031;-69
2021/09/20 06:53:02;;;;;;;7.75;3.20;;;16.70;80.70;;;;;;5091610;28;20024;-69
2021/09/20 06:55:28;;;;;;;8.45;3.13;;;16.80;80.80;;;;;;5079237;28;20024;-69
2021/09/20 06:58:01;;;;;;;12.95;3.08;;;16.70;80.70;;;;;;5081398;28;20044;-69
2021/09/20 07:00:29;;;;;;;7.38;2.78;;;16.70;80.80;;;;;;5091226;28;20035;-69
2021/09/20 07:02:55;;;;;;;7.35;3.30;;;16.70;80.80;;;;;;5082485;28;20054;-69
2021/09/20 07:05:21;;;;;;;7.03;2.95;;;16.70;80.80;;;;;;5089190;28;20519;-69
2021/09/20 07:07:46;;;;;;;11.43;2.88;;;16.70;80.90;;;;;;5088341;28;20024;-69
2021/09/20 07:10:14;;;;;;;4.60;2.50;;;16.70;80.90;;;;;;5075401;28;20365;-69
2021/09/20 07:12:41;;;;;;;4.97;2.88;;;16.80;81.00;;;;;;5076712;28;20028;-69
2021/09/20 07:15:08;;;;;;;6.55;2.85;;;16.80;81.10;;;;;;5086145;28;20071;-69
2021/09/20 07:17:34;;;;;;;9.98;3.03;;;16.80;81.10;;;;;;5080206;28;20050;-69
2021/09/20 07:20:00;;;;;;;5.25;2.75;;;16.80;81.10;;;;;;5083572;28;20063;-69
2021/09/20 07:22:26;;;;;;;5.50;2.83;;;16.80;81.20;;;;;;5079912;28;20400;-69
2021/09/20 07:24:51;;;;;;;4.18;2.38;;;16.80;81.00;;;;;;5074943;28;20029;-69
2021/09/20 07:27:17;;;;;;;5.18;2.47;;;16.80;81.00;;;;;;5086129;28;20062;-69
2021/09/20 07:29:43;;;;;;;5.93;2.15;;;16.80;80.90;;;;;;5089182;28;20032;-69
2021/09/20 07:32:09;;;;;;;6.68;2.72;;;16.90;80.90;;;;;;5077050;28;20089;-69
2021/09/20 07:34:35;;;;;;;4.25;2.63;;;16.90;80.90;;;;;;5089637;28;20028;-69
2021/09/20 07:37:00;;;;;;;5.75;2.80;;;16.90;80.90;;;;;;5079858;28;20093;-69
2021/09/20 07:39:26;;;;;;;7.18;2.70;;;16.90;80.80;;;;;;5081705;28;20117;-69
2021/09/20 07:41:52;;;;;;;5.43;2.47;;;16.90;80.80;;;;;;5085116;28;20085;-69
2021/09/20 07:44:17;;;;;;;7.97;2.53;;;16.90;80.70;;;;;;5090580;28;20024;-69
2021/09/20 07:46:43;;;;;;;7.57;2.55;;;17.00;81.20;;;;;;5075503;28;20369;-69
2021/09/20 07:49:09;;;;;;;5.28;2.25;;;17.00;80.50;;;;;;5085401;28;20066;-69
2021/09/20 07:51:34;;;;;;;7.03;2.20;;;17.00;80.60;;;;;;5077737;28;20128;-69
2021/09/20 07:54:00;;;;;;;4.45;2.30;;;17.00;80.50;;;;;;5080728;28;20166;-69
2021/09/20 07:56:27;;;;;;;6.68;2.40;;;17.10;80.50;;;;;;5090919;28;20478;-69
2021/09/20 07:58:53;;;;;;;3.85;2.33;;;17.10;80.40;;;;;;5082925;28;20028;-69
2021/09/20 08:01:19;;;;;;;6.50;2.58;;;17.10;80.20;;;;;;5077854;28;20032;-69
2021/09/20 08:03:44;;;;;;;7.97;2.45;;;17.10;80.00;;;;;;5076969;28;20036;-69
2021/09/20 08:06:10;;;;;;;5.68;2.72;;;17.10;80.00;;;;;;5088141;28;20032;-69
2021/09/20 08:08:36;;;;;;;3.92;2.35;;;17.10;79.80;;;;;;5086922;28;20073;-69
2021/09/20 08:11:01;;;;;;;5.78;2.55;;;17.20;79.70;;;;;;5081877;28;20032;-70
2021/09/20 08:13:27;;;;;;;5.40;2.25;;;17.20;79.70;;;;;;5074804;28;20039;-72
2021/09/20 08:15:54;;;;;;;6.57;2.35;;;17.20;79.50;;;;;;5091448;28;20098;-73
2021/09/20 08:18:19;;;;;;;4.97;2.40;;;17.20;79.50;;;;;;5078079;28;20033;-73
2021/09/20 08:20:46;;;;;;;5.68;2.33;;;17.30;79.40;;;;;;5081682;28;20028;-73
2021/09/20 08:23:13;;;;;;;3.25;1.90;;;17.30;79.20;;;;;;5087339;28;20028;-73
2021/09/20 08:25:39;;;;;;;4.13;2.15;;;17.30;79.00;;;;;;5085560;28;20407;-73
2021/09/20 08:28:06;;;;;;;6.15;2.55;;;17.30;78.90;;;;;;5082836;28;20380;-72
2021/09/20 08:30:32;;;;;;;6.10;2.95;;;17.30;78.90;;;;;;5074708;28;20043;-73
2021/09/20 08:32:58;;;;;;;21.58;2.75;;;17.30;78.90;;;;;;5081871;28;20074;-72
2021/09/20 08:35:24;;;;;;;9.30;3.00;;;17.40;78.90;;;;;;5080196;28;20024;-72
2021/09/20 08:37:50;;;;;;;7.00;2.58;;;17.40;78.60;;;;;;5073325;28;20472;-73
2021/09/20 08:40:17;;;;;;;9.07;2.20;;;17.40;78.50;;;;;;5074712;28;20074;-73
2021/09/20 08:42:44;;;;;;;5.47;2.35;;;17.40;78.20;;;;;;5080938;28;20364;-73
2021/09/20 08:45:12;;;;;;;5.70;2.53;;;17.40;78.20;;;;;;5080011;28;20039;-74
2021/09/20 08:47:43;;;;;;;5.25;2.38;;;17.40;78.40;;;;;;5084371;28;20486;-74
2021/09/20 08:50:11;;;;;;;7.85;2.35;;;17.50;78.30;;;;;;5088408;28;20440;-74
2021/09/20 08:52:36;;;;;;;6.97;2.30;;;17.50;77.90;;;;;;5088943;28;20463;-72
2021/09/20 08:55:03;;;;;;;3.75;2.30;;;17.50;77.80;;;;;;5089331;28;20035;-74
2021/09/20 08:57:29;;;;;;;6.45;2.42;;;17.50;77.60;;;;;;5077086;28;20116;-71
2021/09/20 08:59:54;;;;;;;5.55;2.40;;;17.50;77.30;;;;;;5079169;28;20131;-71
2021/09/20 09:02:21;;;;;;;5.47;2.60;;;17.50;77.00;;;;;;5084680;28;20028;-71
2021/09/20 09:04:47;;;;;;;6.70;2.10;;;17.50;76.90;;;;;;5087120;28;20036;-71
2021/09/20 09:07:15;;;;;;;3.45;1.98;;;17.60;77.00;;;;;;5074047;28;20146;-71
2021/09/20 09:09:47;;;;;;;5.15;2.50;;;17.60;76.80;;;;;;5076553;28;20040;-71
2021/09/20 09:12:24;;;;;;;3.92;2.10;;;17.60;76.60;;;;;;5075008;28;20031;-72
2021/09/20 09:14:49;;;;;;;7.28;1.77;;;17.60;76.30;;;;;;5090238;28;20028;-71
2021/09/20 09:17:25;;;;;;;6.97;1.95;;;17.60;76.30;;;;;;5077768;28;20028;-71
2021/09/20 09:20:10;;;;;;;4.15;1.83;;;17.70;76.30;;;;;;5079110;28;20028;-71
2021/09/20 09:22:43;;;;;;;6.95;2.08;;;17.70;76.00;;;;;;5080590;28;20032;-71
2021/09/20 09:25:15;;;;;;;2.67;1.87;;;17.70;75.80;;;;;;5087268;28;20463;-73
2021/09/20 09:27:42;;;;;;;5.90;2.13;;;17.70;76.30;;;;;;5080822;28;20270;-74
2021/09/20 09:30:08;;;;;;;7.75;2.17;;;17.80;76.00;;;;;;5075152;28;20051;-75
2021/09/20 09:32:34;;;;;;;3.53;1.80;;;17.80;75.80;;;;;;5084828;28;20463;-74
2021/09/20 09:35:03;;;;;;;4.63;1.92;;;17.90;75.70;;;;;;5079384;28;20423;-75
2021/09/20 09:37:29;;;;;;;6.47;2.10;;;17.90;75.60;;;;;;5080752;28;20044;-68
2021/09/20 09:40:25;;;;;;;3.90;1.90;;;17.90;75.10;;;;;;5079313;28;20033;-70
2021/09/20 09:42:58;;;;;;;4.15;2.10;;;17.90;75.10;;;;;;5080461;28;20514;-70
2021/09/20 09:45:25;;;;;;;4.40;2.00;;;17.90;74.50;;;;;;5088239;28;20024;-73
2021/09/20 09:48:09;;;;;;;9.63;2.20;;;18.00;74.40;;;;;;5082622;28;20036;-70
2021/09/20 09:50:39;;;;;;;3.92;2.13;;;18.00;73.80;;;;;;5076518;28;20062;-69
2021/09/20 09:53:05;;;;;;;3.95;2.00;;;18.10;73.70;;;;;;5076018;28;20495;-70
2021/09/20 09:55:31;;;;;;;4.20;1.92;;;18.10;73.60;;;;;;5080611;28;20039;-70
2021/09/20 09:58:12;;;;;;;3.90;1.88;;;18.10;73.30;;;;;;5076434;28;20035;-71
2021/09/20 10:00:38;;;;;;;7.93;1.90;;;18.10;72.80;;;;;;5079424;28;20085;-70
2021/09/20 10:03:04;;;;;;;4.57;2.03;;;18.20;72.40;;;;;;5090830;28;20028;-70
2021/09/20 10:05:31;;;;;;;9.68;2.13;;;18.20;72.00;;;;;;5083653;28;20030;-70
2021/09/20 10:07:56;;;;;;;4.32;2.33;;;18.20;71.90;;;;;;5085533;28;20036;-70
2021/09/20 10:10:23;;;;;;;7.45;2.13;;;18.30;72.20;;;;;;5085538;28;20036;-70
2021/09/20 10:12:53;;;;;;;3.65;1.88;;;18.30;71.50;;;;;;5086529;28;20078;-70
2021/09/20 10:15:22;;;;;;;5.25;2.08;;;18.30;71.20;;;;;;5083876;28;20028;-70
2021/09/20 10:17:48;;;;;;;4.80;1.77;;;18.30;72.30;;;;;;5084845;28;20366;-70
2021/09/20 10:20:17;;;;;;;4.10;1.92;;;18.40;71.60;;;;;;5071874;28;20017;-70
2021/09/20 10:22:43;;;;;;;8.40;2.17;;;18.30;71.20;;;;;;5074024;28;20047;-70
2021/09/20 10:25:12;;;;;;;5.30;1.92;;;18.40;70.70;;;;;;5073316;28;20151;-70
2021/09/20 10:27:38;;;;;;;3.25;1.83;;;18.40;70.40;;;;;;5072366;28;20077;-70
2021/09/20 10:30:22;;;;;;;4.47;1.90;;;18.40;70.30;;;;;;5086559;28;20117;-70
2021/09/20 10:32:57;;;;;;;5.80;1.60;;;18.40;70.30;;;;;;5099150;28;20393;-70
2021/09/20 10:35:31;;;;;;;6.22;2.03;;;18.50;70.70;;;;;;5078374;28;20169;-70
2021/09/20 10:38:22;;;;;;;3.30;1.80;;;18.50;70.20;;;;;;5072015;28;20381;-70
2021/09/20 10:41:07;;;;;;;4.72;1.95;;;18.50;69.80;;;;;;5090238;28;20036;-70
2021/09/20 10:43:34;;;;;;;4.97;2.00;;;18.50;69.60;;;;;;5084758;28;20036;-70
2021/09/20 10:46:01;;;;;;;3.85;1.95;;;18.60;69.60;;;;;;5079216;28;20028;-70
2021/09/20 10:49:04;;;;;;;4.53;2.00;;;18.60;69.60;;;;;;5082336;28;20544;-70
2021/09/20 10:51:35;;;;;;;4.82;1.60;;;18.60;69.30;;;;;;5028818;28;20032;-70
2021/09/20 10:54:15;;;;;;;4.05;1.88;;;18.60;68.70;;;;;;5073369;28;20043;-70
2021/09/20 10:56:42;;;;;;;4.05;2.15;;;18.70;68.50;;;;;;5081154;28;20090;-70
2021/09/20 10:59:10;;;;;;;6.32;1.95;;;18.70;68.30;;;;;;5077573;28;20033;-70
2021/09/20 11:01:39;;;;;;;3.42;1.75;;;18.70;67.90;;;;;;5081160;28;20035;-70
2021/09/20 11:04:15;;;;;;;2.60;1.60;;;18.70;69.40;;;;;;5088433;28;20457;-70
2021/09/20 11:06:43;;;;;;;6.18;1.80;;;18.70;68.80;;;;;;5085147;28;20028;-70
2021/09/20 11:09:08;;;;;;;2.67;1.73;;;18.80;69.40;;;;;;5085632;28;20043;-70
2021/09/20 11:14:15;;;;;;;2.88;1.77;;;18.80;67.20;;;;;;5090210;28;20082;-70
2021/09/20 11:16:49;;;;;;;2.65;1.50;;;18.80;66.60;;;;;;5093239;28;20103;-71
2021/09/20 11:19:24;;;;;;;3.22;1.50;;;18.80;66.40;;;;;;5094574;28;20093;-70
2021/09/20 11:22:14;;;;;;;3.38;1.77;;;18.90;65.90;;;;;;5082160;28;20028;-70
2021/09/20 11:24:46;;;;;;;4.10;1.65;;;18.90;65.90;;;;;;5086624;28;20055;-70
2021/09/20 11:27:24;;;;;;;7.15;1.50;;;18.90;65.20;;;;;;5085914;28;20024;-70
2021/09/20 11:30:13;;;;;;;7.03;1.50;;;19.00;65.20;;;;;;5092218;28;20036;-70
2021/09/20 11:33:08;;;;;;;3.85;1.23;;;19.00;64.90;;;;;;5093459;28;20133;-71
2021/09/20 11:35:35;;;;;;;1.67;1.23;;;19.10;64.40;;;;;;5087468;28;20031;-74
2021/09/20 11:38:04;;;;;;;4.88;1.52;;;19.00;64.20;;;;;;5092555;28;20059;-74
2021/09/20 11:40:33;;;;;;;3.70;1.50;;;19.10;64.50;;;;;;5090518;28;20028;-70
2021/09/20 11:43:02;;;;;;;4.97;1.50;;;19.20;64.30;;;;;;5075207;28;20081;-70
2021/09/20 11:45:36;;;;;;;3.58;1.40;;;19.20;64.70;;;;;;5078394;28;20101;-70
2021/09/20 11:48:08;;;;;;;5.15;1.70;;;19.20;63.60;;;;;;5074797;28;20499;-70
2021/09/20 11:50:37;;;;;;;2.50;1.38;;;19.30;63.40;;;;;;5077654;28;21536;-70
2021/09/20 11:53:17;;;;;;;4.65;1.48;;;19.40;64.70;;;;;;5081813;28;20453;-70
2021/09/20 11:55:46;;;;;;;1.77;1.25;;;19.40;63.80;;;;;;5090018;28;20418;-70
2021/09/20 11:58:14;;;;;;;3.63;1.40;;;19.50;63.20;;;;;;5086980;28;20066;-70
2021/09/20 12:00:45;;;;;;;3.00;1.80;;;19.50;62.90;;;;;;5079708;28;20024;-70
2021/09/20 12:03:18;;;;;;;2.35;1.40;;;19.60;62.60;;;;;;5074021;28;20032;-70
2021/09/20 12:05:46;;;;;;;4.77;1.60;;;19.60;61.80;;;;;;5088676;28;20031;-70
2021/09/20 12:08:29;;;;;;;2.80;1.23;;;19.70;62.20;;;;;;5087642;28;20483;-70
2021/09/20 12:10:58;;;;;;;3.45;1.35;;;19.80;61.70;;;;;;5087250;28;20445;-69
2021/09/20 12:13:31;;;;;;;2.63;1.17;;;19.80;60.80;;;;;;5081701;28;20025;-69
2021/09/20 12:16:07;;;;;;;3.42;1.20;;;19.80;60.20;;;;;;5075823;28;20025;-74
2021/09/20 12:18:33;;;;;;;3.17;1.38;;;19.80;60.80;;;;;;5081663;28;20051;-69
2021/09/20 12:21:02;;;;;;;2.83;1.27;;;19.80;61.70;;;;;;5079167;28;20732;-69
2021/09/20 12:23:33;;;;;;;1.73;1.05;;;19.80;60.70;;;;;;5092100;28;20034;-69
2021/09/20 12:26:04;;;;;;;3.05;1.10;;;19.80;62.70;;;;;;5081324;28;20059;-69
2021/09/20 12:28:37;;;;;;;4.10;1.33;;;19.90;61.60;;;;;;5078713;28;20426;-71
2021/09/20 12:31:10;;;;;;;2.95;1.10;;;19.90;61.60;;;;;;5089333;28;20024;-72
2021/09/20 12:33:57;;;;;;;4.03;1.30;;;19.90;61.20;;;;;;5087222;28;20043;-72
2021/09/20 12:36:40;;;;;;;2.45;1.50;;;19.90;62.50;;;;;;5085547;28;20039;-72
2021/09/20 12:39:09;;;;;;;3.03;1.35;;;20.00;63.10;;;;;;5084508;28;20035;-72
2021/09/20 12:41:47;;;;;;;2.45;1.70;;;20.00;63.80;;;;;;5078905;28;20051;-72
2021/09/20 12:44:27;;;;;;;4.72;1.50;;;20.00;62.50;;;;;;5085472;28;20472;-72
2021/09/20 12:47:17;;;;;;;3.83;1.60;;;20.00;61.80;;;;;;5080432;28;20090;-72
2021/09/20 12:49:55;;;;;;;1.67;1.20;;;20.10;63.70;;;;;;5077005;28;20052;-72
2021/09/20 12:52:31;;;;;;;2.67;1.50;;;20.10;65.40;;;;;;5079694;28;20057;-72